sensor_id;sensor_type;location;lat;lon;timestamp;temperature;humidity
9103;DHT22;4587;51.434;6.788;2022-09-09T00:03:47;16.20;99.90
9103;DHT22;4587;51.434;6.788;2022-09-09T00:06:43;16.30;99.90
9103;DHT22;4587;51.434;6.788;2022-09-09T00:09:16;16.20;99.90
9103;DHT22;4587;51.434;6.788;2022-09-09T00:14:47;16.20;99.90
9103;DHT22;4587;51.434;6.788;2022-09-09T00:17:36;16.10;99.90
9103;DHT22;4587;51.434;6.788;2022-09-09T00:25:34;16.10;99.90
9103;DHT22;4587;51.434;6.788;2022-09-09T00:28:04;16.00;99.90
9103;DHT22;4587;51.434;6.788;2022-09-09T00:30:36;16.00;99.90
9103;DHT22;4587;51.434;6.788;2022-09-09T00:33:11;16.00;99.90
9103;DHT22;4587;51.434;6.788;2022-09-09T00:35:49;15.90;99.90
9103;DHT22;4587;51.434;6.788;2022-09-09T00:38:37;15.90;99.90
9103;DHT22;4587;51.434;6.788;2022-09-09T00:41:50;15.90;99.90
9103;DHT22;4587;51.434;6.788;2022-09-09T00:44:33;15.90;99.90
9103;DHT22;4587;51.434;6.788;2022-09-09T00:52:26;16.00;99.90
9103;DHT22;4587;51.434;6.788;2022-09-09T00:57:38;15.90;99.90
9103;DHT22;4587;51.434;6.788;2022-09-09T01:00:30;15.90;99.90
9103;DHT22;4587;51.434;6.788;2022-09-09T01:10:58;16.00;99.90
9103;DHT22;4587;51.434;6.788;2022-09-09T01:13:30;15.90;99.90
9103;DHT22;4587;51.434;6.788;2022-09-09T01:15:58;15.90;99.90
9103;DHT22;4587;51.434;6.788;2022-09-09T01:18:37;15.90;99.90
9103;DHT22;4587;51.434;6.788;2022-09-09T01:22:06;15.80;99.90
9103;DHT22;4587;51.434;6.788;2022-09-09T01:27:04;15.80;99.90
9103;DHT22;4587;51.434;6.788;2022-09-09T01:29:31;15.80;99.90
9103;DHT22;4587;51.434;6.788;2022-09-09T01:31:59;15.70;99.90
9103;DHT22;4587;51.434;6.788;2022-09-09T01:34:30;15.70;99.90
9103;DHT22;4587;51.434;6.788;2022-09-09T01:37:03;15.60;99.90
9103;DHT22;4587;51.434;6.788;2022-09-09T01:39:30;15.60;99.90
9103;DHT22;4587;51.434;6.788;2022-09-09T01:41:57;15.60;99.90
9103;DHT22;4587;51.434;6.788;2022-09-09T01:44:24;15.60;99.90
9103;DHT22;4587;51.434;6.788;2022-09-09T01:46:50;15.50;99.90
9103;DHT22;4587;51.434;6.788;2022-09-09T01:49:16;15.50;99.90
9103;DHT22;4587;51.434;6.788;2022-09-09T01:51:43;15.50;99.90
9103;DHT22;4587;51.434;6.788;2022-09-09T01:54:10;15.50;99.90
9103;DHT22;4587;51.434;6.788;2022-09-09T01:59:24;15.50;99.90
9103;DHT22;4587;51.434;6.788;2022-09-09T02:02:03;15.50;99.90
9103;DHT22;4587;51.434;6.788;2022-09-09T02:04:42;15.50;99.90
9103;DHT22;4587;51.434;6.788;2022-09-09T02:12:33;15.50;99.90
9103;DHT22;4587;51.434;6.788;2022-09-09T02:15:05;15.60;99.90
9103;DHT22;4587;51.434;6.788;2022-09-09T02:17:35;15.60;99.90
9103;DHT22;4587;51.434;6.788;2022-09-09T02:20:11;15.70;99.90
9103;DHT22;4587;51.434;6.788;2022-09-09T02:22:39;15.60;99.90
9103;DHT22;4587;51.434;6.788;2022-09-09T02:25:08;15.70;99.90
9103;DHT22;4587;51.434;6.788;2022-09-09T02:27:35;15.70;99.90
9103;DHT22;4587;51.434;6.788;2022-09-09T02:30:02;15.80;99.90
9103;DHT22;4587;51.434;6.788;2022-09-09T02:32:29;15.90;99.90
9103;DHT22;4587;51.434;6.788;2022-09-09T02:34:59;15.90;99.90
9103;DHT22;4587;51.434;6.788;2022-09-09T02:37:35;15.90;99.90
9103;DHT22;4587;51.434;6.788;2022-09-09T02:40:03;15.90;99.90
9103;DHT22;4587;51.434;6.788;2022-09-09T02:42:30;15.90;99.90
9103;DHT22;4587;51.434;6.788;2022-09-09T02:44:55;15.90;99.90
9103;DHT22;4587;51.434;6.788;2022-09-09T02:47:35;15.90;99.90
9103;DHT22;4587;51.434;6.788;2022-09-09T02:50:12;15.90;99.90
9103;DHT22;4587;51.434;6.788;2022-09-09T02:55:49;15.90;99.90
9103;DHT22;4587;51.434;6.788;2022-09-09T02:58:18;15.90;99.90
9103;DHT22;4587;51.434;6.788;2022-09-09T03:00:47;15.90;99.90
9103;DHT22;4587;51.434;6.788;2022-09-09T03:03:13;15.80;99.90
9103;DHT22;4587;51.434;6.788;2022-09-09T03:05:42;15.80;99.90
9103;DHT22;4587;51.434;6.788;2022-09-09T03:08:08;15.80;99.90
9103;DHT22;4587;51.434;6.788;2022-09-09T03:10:35;15.80;99.90
9103;DHT22;4587;51.434;6.788;2022-09-09T03:13:00;15.70;99.90
9103;DHT22;4587;51.434;6.788;2022-09-09T03:15:26;15.80;99.90
9103;DHT22;4587;51.434;6.788;2022-09-09T03:17:56;15.70;99.90
9103;DHT22;4587;51.434;6.788;2022-09-09T03:20:27;15.70;99.90
9103;DHT22;4587;51.434;6.788;2022-09-09T03:22:54;15.70;99.90
9103;DHT22;4587;51.434;6.788;2022-09-09T03:25:19;15.70;99.90
9103;DHT22;4587;51.434;6.788;2022-09-09T03:27:45;15.70;99.90
9103;DHT22;4587;51.434;6.788;2022-09-09T03:30:11;15.70;99.90
9103;DHT22;4587;51.434;6.788;2022-09-09T03:32:37;15.80;99.90
9103;DHT22;4587;51.434;6.788;2022-09-09T03:35:03;15.80;99.90
9103;DHT22;4587;51.434;6.788;2022-09-09T03:37:28;15.70;99.90
9103;DHT22;4587;51.434;6.788;2022-09-09T03:39:54;15.80;99.90
9103;DHT22;4587;51.434;6.788;2022-09-09T03:42:20;15.80;99.90
9103;DHT22;4587;51.434;6.788;2022-09-09T03:44:46;15.80;99.90
9103;DHT22;4587;51.434;6.788;2022-09-09T03:47:20;15.80;99.90
9103;DHT22;4587;51.434;6.788;2022-09-09T03:49:47;15.80;99.90
9103;DHT22;4587;51.434;6.788;2022-09-09T03:52:14;15.80;99.90
9103;DHT22;4587;51.434;6.788;2022-09-09T03:54:39;15.80;99.90
9103;DHT22;4587;51.434;6.788;2022-09-09T03:57:06;15.80;99.90
9103;DHT22;4587;51.434;6.788;2022-09-09T03:59:32;15.80;99.90
9103;DHT22;4587;51.434;6.788;2022-09-09T04:01:58;15.70;99.90
9103;DHT22;4587;51.434;6.788;2022-09-09T04:04:24;15.70;99.90
9103;DHT22;4587;51.434;6.788;2022-09-09T04:06:51;15.70;99.90
9103;DHT22;4587;51.434;6.788;2022-09-09T04:09:17;15.60;99.90
9103;DHT22;4587;51.434;6.788;2022-09-09T04:11:42;15.70;99.90
9103;DHT22;4587;51.434;6.788;2022-09-09T04:14:08;15.60;99.90
9103;DHT22;4587;51.434;6.788;2022-09-09T04:16:34;15.70;99.90
9103;DHT22;4587;51.434;6.788;2022-09-09T04:19:03;15.70;99.90
9103;DHT22;4587;51.434;6.788;2022-09-09T04:21:30;15.70;99.90
9103;DHT22;4587;51.434;6.788;2022-09-09T04:23:56;15.70;99.90
9103;DHT22;4587;51.434;6.788;2022-09-09T04:26:22;15.70;99.90
9103;DHT22;4587;51.434;6.788;2022-09-09T04:28:47;15.70;99.90
9103;DHT22;4587;51.434;6.788;2022-09-09T04:31:21;15.60;99.90
9103;DHT22;4587;51.434;6.788;2022-09-09T04:33:48;15.70;99.90
9103;DHT22;4587;51.434;6.788;2022-09-09T04:36:14;15.70;99.90
9103;DHT22;4587;51.434;6.788;2022-09-09T04:38:40;15.80;99.90
9103;DHT22;4587;51.434;6.788;2022-09-09T04:41:09;15.80;99.90
9103;DHT22;4587;51.434;6.788;2022-09-09T04:43:39;15.80;99.90
9103;DHT22;4587;51.434;6.788;2022-09-09T04:46:05;15.80;99.90
9103;DHT22;4587;51.434;6.788;2022-09-09T04:48:31;15.90;99.90
9103;DHT22;4587;51.434;6.788;2022-09-09T04:51:05;15.90;99.90
9103;DHT22;4587;51.434;6.788;2022-09-09T04:53:31;15.90;99.90
9103;DHT22;4587;51.434;6.788;2022-09-09T04:56:14;15.90;99.90
9103;DHT22;4587;51.434;6.788;2022-09-09T04:58:40;15.90;99.90
9103;DHT22;4587;51.434;6.788;2022-09-09T05:01:19;16.00;99.90
9103;DHT22;4587;51.434;6.788;2022-09-09T05:03:46;16.00;99.90
9103;DHT22;4587;51.434;6.788;2022-09-09T05:06:15;16.00;99.90
9103;DHT22;4587;51.434;6.788;2022-09-09T05:08:42;16.00;99.90
9103;DHT22;4587;51.434;6.788;2022-09-09T05:11:24;16.10;99.90
9103;DHT22;4587;51.434;6.788;2022-09-09T05:14:11;16.10;99.90
9103;DHT22;4587;51.434;6.788;2022-09-09T05:16:37;16.10;99.90
9103;DHT22;4587;51.434;6.788;2022-09-09T05:19:03;16.10;99.90
9103;DHT22;4587;51.434;6.788;2022-09-09T05:21:29;16.00;99.90
9103;DHT22;4587;51.434;6.788;2022-09-09T05:23:56;16.10;99.90
9103;DHT22;4587;51.434;6.788;2022-09-09T05:26:22;16.10;99.90
9103;DHT22;4587;51.434;6.788;2022-09-09T05:28:48;16.10;99.90
9103;DHT22;4587;51.434;6.788;2022-09-09T05:31:16;16.10;99.90
9103;DHT22;4587;51.434;6.788;2022-09-09T05:33:43;16.10;99.90
9103;DHT22;4587;51.434;6.788;2022-09-09T05:36:13;16.10;99.90
9103;DHT22;4587;51.434;6.788;2022-09-09T05:38:40;16.20;99.90
9103;DHT22;4587;51.434;6.788;2022-09-09T05:41:07;16.20;99.90
9103;DHT22;4587;51.434;6.788;2022-09-09T05:43:33;16.30;99.90
9103;DHT22;4587;51.434;6.788;2022-09-09T05:46:00;16.30;99.90
9103;DHT22;4587;51.434;6.788;2022-09-09T05:48:35;16.30;99.90
9103;DHT22;4587;51.434;6.788;2022-09-09T05:51:01;16.30;99.90
9103;DHT22;4587;51.434;6.788;2022-09-09T05:53:28;16.30;99.90
9103;DHT22;4587;51.434;6.788;2022-09-09T05:56:11;16.40;99.90
9103;DHT22;4587;51.434;6.788;2022-09-09T05:58:37;16.40;99.90
9103;DHT22;4587;51.434;6.788;2022-09-09T06:01:14;16.40;99.90
9103;DHT22;4587;51.434;6.788;2022-09-09T06:03:41;16.40;99.90
9103;DHT22;4587;51.434;6.788;2022-09-09T06:06:09;16.50;99.90
9103;DHT22;4587;51.434;6.788;2022-09-09T06:08:37;16.50;99.90
9103;DHT22;4587;51.434;6.788;2022-09-09T06:11:12;16.60;99.90
9103;DHT22;4587;51.434;6.788;2022-09-09T06:13:39;16.60;99.90
9103;DHT22;4587;51.434;6.788;2022-09-09T06:16:16;16.60;99.90
9103;DHT22;4587;51.434;6.788;2022-09-09T06:18:42;16.70;99.90
9103;DHT22;4587;51.434;6.788;2022-09-09T06:21:28;16.80;99.90
9103;DHT22;4587;51.434;6.788;2022-09-09T06:23:55;16.80;99.90
9103;DHT22;4587;51.434;6.788;2022-09-09T06:26:41;16.90;99.90
9103;DHT22;4587;51.434;6.788;2022-09-09T06:29:08;17.00;99.90
9103;DHT22;4587;51.434;6.788;2022-09-09T06:31:35;17.10;99.90
9103;DHT22;4587;51.434;6.788;2022-09-09T06:34:04;17.20;99.90
9103;DHT22;4587;51.434;6.788;2022-09-09T06:36:32;17.30;99.90
9103;DHT22;4587;51.434;6.788;2022-09-09T06:39:07;17.50;99.90
9103;DHT22;4587;51.434;6.788;2022-09-09T06:41:36;17.70;99.90
9103;DHT22;4587;51.434;6.788;2022-09-09T06:44:03;17.80;99.90
9103;DHT22;4587;51.434;6.788;2022-09-09T06:46:38;18.00;99.90
9103;DHT22;4587;51.434;6.788;2022-09-09T06:49:04;18.10;99.90
9103;DHT22;4587;51.434;6.788;2022-09-09T06:51:32;18.40;99.90
9103;DHT22;4587;51.434;6.788;2022-09-09T06:54:00;18.60;99.90
9103;DHT22;4587;51.434;6.788;2022-09-09T06:56:34;18.80;99.90
9103;DHT22;4587;51.434;6.788;2022-09-09T06:59:02;19.20;99.90
9103;DHT22;4587;51.434;6.788;2022-09-09T07:01:31;20.10;99.90
9103;DHT22;4587;51.434;6.788;2022-09-09T07:03:58;21.00;99.90
9103;DHT22;4587;51.434;6.788;2022-09-09T07:06:29;21.10;99.90
9103;DHT22;4587;51.434;6.788;2022-09-09T07:08:57;20.80;99.90
9103;DHT22;4587;51.434;6.788;2022-09-09T07:11:26;20.60;99.90
9103;DHT22;4587;51.434;6.788;2022-09-09T07:13:52;20.40;99.90
9103;DHT22;4587;51.434;6.788;2022-09-09T07:16:19;20.40;99.90
9103;DHT22;4587;51.434;6.788;2022-09-09T07:18:46;21.00;99.90
9103;DHT22;4587;51.434;6.788;2022-09-09T07:21:13;21.90;99.90
9103;DHT22;4587;51.434;6.788;2022-09-09T07:23:39;22.90;99.90
9103;DHT22;4587;51.434;6.788;2022-09-09T07:26:09;24.20;99.90
9103;DHT22;4587;51.434;6.788;2022-09-09T07:28:35;24.70;99.90
9103;DHT22;4587;51.434;6.788;2022-09-09T07:31:02;24.40;99.90
9103;DHT22;4587;51.434;6.788;2022-09-09T07:33:29;23.60;99.90
9103;DHT22;4587;51.434;6.788;2022-09-09T07:36:03;23.20;99.90
9103;DHT22;4587;51.434;6.788;2022-09-09T07:38:29;23.40;99.90
9103;DHT22;4587;51.434;6.788;2022-09-09T07:41:06;23.30;99.90
9103;DHT22;4587;51.434;6.788;2022-09-09T07:43:34;23.10;99.90
9103;DHT22;4587;51.434;6.788;2022-09-09T07:46:00;23.00;99.90
9103;DHT22;4587;51.434;6.788;2022-09-09T07:48:28;22.60;99.90
9103;DHT22;4587;51.434;6.788;2022-09-09T07:53:31;22.30;99.90
9103;DHT22;4587;51.434;6.788;2022-09-09T07:56:03;21.90;99.90
9103;DHT22;4587;51.434;6.788;2022-09-09T07:58:29;21.50;99.90
9103;DHT22;4587;51.434;6.788;2022-09-09T08:00:54;21.40;99.90
9103;DHT22;4587;51.434;6.788;2022-09-09T08:03:20;21.80;99.90
9103;DHT22;4587;51.434;6.788;2022-09-09T08:05:47;23.20;99.90
9103;DHT22;4587;51.434;6.788;2022-09-09T08:08:12;24.80;99.90
9103;DHT22;4587;51.434;6.788;2022-09-09T08:10:38;26.00;99.90
9103;DHT22;4587;51.434;6.788;2022-09-09T08:13:03;26.50;99.90
9103;DHT22;4587;51.434;6.788;2022-09-09T08:15:30;26.20;99.90
9103;DHT22;4587;51.434;6.788;2022-09-09T08:17:56;25.30;99.90
9103;DHT22;4587;51.434;6.788;2022-09-09T08:20:21;24.90;99.90
9103;DHT22;4587;51.434;6.788;2022-09-09T08:22:48;25.80;99.90
9103;DHT22;4587;51.434;6.788;2022-09-09T08:25:15;25.80;99.90
9103;DHT22;4587;51.434;6.788;2022-09-09T08:27:40;25.40;99.90
9103;DHT22;4587;51.434;6.788;2022-09-09T08:30:06;24.90;99.90
9103;DHT22;4587;51.434;6.788;2022-09-09T08:32:32;24.30;99.90
9103;DHT22;4587;51.434;6.788;2022-09-09T08:34:58;23.90;99.90
9103;DHT22;4587;51.434;6.788;2022-09-09T08:37:23;23.30;99.90
9103;DHT22;4587;51.434;6.788;2022-09-09T08:39:49;23.00;99.90
9103;DHT22;4587;51.434;6.788;2022-09-09T08:42:32;22.80;99.90
9103;DHT22;4587;51.434;6.788;2022-09-09T08:55:39;22.20;99.90
9103;DHT22;4587;51.434;6.788;2022-09-09T08:58:21;22.20;99.90
9103;DHT22;4587;51.434;6.788;2022-09-09T09:01:17;22.10;99.90
9103;DHT22;4587;51.434;6.788;2022-09-09T09:12:43;21.80;99.90
9103;DHT22;4587;51.434;6.788;2022-09-09T09:15:16;21.60;99.90
9103;DHT22;4587;51.434;6.788;2022-09-09T09:17:43;21.50;99.90
9103;DHT22;4587;51.434;6.788;2022-09-09T09:20:16;21.20;99.90
9103;DHT22;4587;51.434;6.788;2022-09-09T09:22:49;21.00;99.90
9103;DHT22;4587;51.434;6.788;2022-09-09T09:25:25;20.90;99.90
9103;DHT22;4587;51.434;6.788;2022-09-09T09:28:15;20.90;99.90
9103;DHT22;4587;51.434;6.788;2022-09-09T09:31:09;21.10;99.90
9103;DHT22;4587;51.434;6.788;2022-09-09T09:33:49;21.20;99.90
9103;DHT22;4587;51.434;6.788;2022-09-09T09:36:16;21.30;99.90
9103;DHT22;4587;51.434;6.788;2022-09-09T09:38:59;21.30;99.90
9103;DHT22;4587;51.434;6.788;2022-09-09T09:43:56;21.00;99.90
9103;DHT22;4587;51.434;6.788;2022-09-09T09:46:24;20.80;99.90
9103;DHT22;4587;51.434;6.788;2022-09-09T09:49:17;20.70;99.90
9103;DHT22;4587;51.434;6.788;2022-09-09T09:51:42;20.70;99.90
9103;DHT22;4587;51.434;6.788;2022-09-09T09:54:09;20.70;99.90
9103;DHT22;4587;51.434;6.788;2022-09-09T09:56:39;20.80;99.90
9103;DHT22;4587;51.434;6.788;2022-09-09T09:59:18;20.80;99.90
9103;DHT22;4587;51.434;6.788;2022-09-09T10:01:44;20.80;99.90
9103;DHT22;4587;51.434;6.788;2022-09-09T10:04:22;21.00;99.90
9103;DHT22;4587;51.434;6.788;2022-09-09T10:06:49;21.20;99.90
9103;DHT22;4587;51.434;6.788;2022-09-09T10:09:28;21.40;99.90
9103;DHT22;4587;51.434;6.788;2022-09-09T10:22:34;22.00;99.90
9103;DHT22;4587;51.434;6.788;2022-09-09T10:30:33;21.80;99.90
9103;DHT22;4587;51.434;6.788;2022-09-09T10:33:16;21.70;99.90
9103;DHT22;4587;51.434;6.788;2022-09-09T10:35:52;21.60;99.90
9103;DHT22;4587;51.434;6.788;2022-09-09T10:38:38;21.50;99.90
9103;DHT22;4587;51.434;6.788;2022-09-09T10:41:12;21.50;99.90
9103;DHT22;4587;51.434;6.788;2022-09-09T10:49:19;21.00;99.90
9103;DHT22;4587;51.434;6.788;2022-09-09T11:02:41;20.80;99.90
9103;DHT22;4587;51.434;6.788;2022-09-09T11:08:09;20.90;99.90
9103;DHT22;4587;51.434;6.788;2022-09-09T11:13:38;21.20;99.90
9103;DHT22;4587;51.434;6.788;2022-09-09T11:18:41;21.20;99.90
9103;DHT22;4587;51.434;6.788;2022-09-09T11:21:22;21.20;99.90
9103;DHT22;4587;51.434;6.788;2022-09-09T11:23:54;21.10;99.90
9103;DHT22;4587;51.434;6.788;2022-09-09T11:26:30;21.00;99.90
9103;DHT22;4587;51.434;6.788;2022-09-09T11:43:31;21.40;99.90
9103;DHT22;4587;51.434;6.788;2022-09-09T11:45:59;21.70;99.90
9103;DHT22;4587;51.434;6.788;2022-09-09T11:51:27;21.90;99.90
9103;DHT22;4587;51.434;6.788;2022-09-09T11:56:51;21.70;99.90
9103;DHT22;4587;51.434;6.788;2022-09-09T11:59:30;21.70;99.90
9103;DHT22;4587;51.434;6.788;2022-09-09T12:04:38;21.60;99.90
9103;DHT22;4587;51.434;6.788;2022-09-09T12:17:22;21.40;99.90
9103;DHT22;4587;51.434;6.788;2022-09-09T12:19:59;21.20;99.90
9103;DHT22;4587;51.434;6.788;2022-09-09T12:28:09;21.20;99.90
9103;DHT22;4587;51.434;6.788;2022-09-09T12:33:16;21.70;99.90
9103;DHT22;4587;51.434;6.788;2022-09-09T12:35:43;21.80;99.90
9103;DHT22;4587;51.434;6.788;2022-09-09T12:38:15;21.70;99.90
9103;DHT22;4587;51.434;6.788;2022-09-09T12:40:54;21.50;99.90
9103;DHT22;4587;51.434;6.788;2022-09-09T12:43:22;21.30;99.90
9103;DHT22;4587;51.434;6.788;2022-09-09T12:45:49;21.00;99.90
9103;DHT22;4587;51.434;6.788;2022-09-09T12:48:28;20.80;99.90
9103;DHT22;4587;51.434;6.788;2022-09-09T12:50:53;20.60;99.90
9103;DHT22;4587;51.434;6.788;2022-09-09T12:55:55;20.20;99.90
9103;DHT22;4587;51.434;6.788;2022-09-09T12:58:21;20.00;99.90
9103;DHT22;4587;51.434;6.788;2022-09-09T13:00:51;19.80;99.90
9103;DHT22;4587;51.434;6.788;2022-09-09T13:03:19;19.70;99.90
9103;DHT22;4587;51.434;6.788;2022-09-09T13:05:46;19.70;99.90
9103;DHT22;4587;51.434;6.788;2022-09-09T13:08:13;19.50;99.90
9103;DHT22;4587;51.434;6.788;2022-09-09T13:10:55;19.40;99.90
9103;DHT22;4587;51.434;6.788;2022-09-09T13:13:26;19.20;99.90
9103;DHT22;4587;51.434;6.788;2022-09-09T13:15:54;19.10;99.90
9103;DHT22;4587;51.434;6.788;2022-09-09T13:18:26;19.00;99.90
9103;DHT22;4587;51.434;6.788;2022-09-09T13:20:53;19.10;99.90
9103;DHT22;4587;51.434;6.788;2022-09-09T13:23:20;19.20;99.90
9103;DHT22;4587;51.434;6.788;2022-09-09T13:25:58;19.20;99.90
9103;DHT22;4587;51.434;6.788;2022-09-09T13:28:28;19.30;99.90
9103;DHT22;4587;51.434;6.788;2022-09-09T13:31:02;19.40;99.90
9103;DHT22;4587;51.434;6.788;2022-09-09T13:33:36;19.50;99.90
9103;DHT22;4587;51.434;6.788;2022-09-09T13:36:08;19.60;99.90
9103;DHT22;4587;51.434;6.788;2022-09-09T13:38:58;19.70;99.90
9103;DHT22;4587;51.434;6.788;2022-09-09T13:41:34;19.80;99.90
9103;DHT22;4587;51.434;6.788;2022-09-09T13:44:01;19.90;99.90
9103;DHT22;4587;51.434;6.788;2022-09-09T13:46:33;19.90;99.90
9103;DHT22;4587;51.434;6.788;2022-09-09T13:51:37;19.90;99.90
9103;DHT22;4587;51.434;6.788;2022-09-09T13:54:09;19.90;99.90
9103;DHT22;4587;51.434;6.788;2022-09-09T13:56:36;20.10;99.90
9103;DHT22;4587;51.434;6.788;2022-09-09T13:59:04;20.20;99.90
9103;DHT22;4587;51.434;6.788;2022-09-09T14:01:30;20.20;99.90
9103;DHT22;4587;51.434;6.788;2022-09-09T14:03:56;20.30;99.90
9103;DHT22;4587;51.434;6.788;2022-09-09T14:06:22;20.40;99.90
9103;DHT22;4587;51.434;6.788;2022-09-09T14:08:49;20.40;99.90
9103;DHT22;4587;51.434;6.788;2022-09-09T14:11:17;20.50;99.90
9103;DHT22;4587;51.434;6.788;2022-09-09T14:13:43;20.50;99.90
9103;DHT22;4587;51.434;6.788;2022-09-09T14:16:08;20.50;99.90
9103;DHT22;4587;51.434;6.788;2022-09-09T14:18:35;20.50;99.90
9103;DHT22;4587;51.434;6.788;2022-09-09T14:21:00;20.70;99.90
9103;DHT22;4587;51.434;6.788;2022-09-09T14:23:27;20.70;99.90
9103;DHT22;4587;51.434;6.788;2022-09-09T14:25:53;20.70;99.90
9103;DHT22;4587;51.434;6.788;2022-09-09T14:28:18;20.70;99.90
9103;DHT22;4587;51.434;6.788;2022-09-09T14:30:44;20.70;99.90
9103;DHT22;4587;51.434;6.788;2022-09-09T14:33:12;20.70;99.90
9103;DHT22;4587;51.434;6.788;2022-09-09T14:35:39;20.70;99.90
9103;DHT22;4587;51.434;6.788;2022-09-09T14:38:05;20.60;99.90
9103;DHT22;4587;51.434;6.788;2022-09-09T14:40:31;20.50;99.90
9103;DHT22;4587;51.434;6.788;2022-09-09T14:42:57;20.40;99.90
9103;DHT22;4587;51.434;6.788;2022-09-09T14:45:23;20.00;99.90
9103;DHT22;4587;51.434;6.788;2022-09-09T14:47:51;19.60;99.90
9103;DHT22;4587;51.434;6.788;2022-09-09T14:50:17;19.20;99.90
9103;DHT22;4587;51.434;6.788;2022-09-09T14:52:43;18.90;99.90
9103;DHT22;4587;51.434;6.788;2022-09-09T14:55:09;18.60;99.90
9103;DHT22;4587;51.434;6.788;2022-09-09T14:57:35;18.40;99.90
9103;DHT22;4587;51.434;6.788;2022-09-09T15:00:02;18.20;99.90
9103;DHT22;4587;51.434;6.788;2022-09-09T15:02:29;18.00;99.90
9103;DHT22;4587;51.434;6.788;2022-09-09T15:04:55;17.90;99.90
9103;DHT22;4587;51.434;6.788;2022-09-09T15:07:22;17.80;99.90
9103;DHT22;4587;51.434;6.788;2022-09-09T15:09:48;17.70;99.90
9103;DHT22;4587;51.434;6.788;2022-09-09T15:12:15;17.80;99.90
9103;DHT22;4587;51.434;6.788;2022-09-09T15:14:40;17.90;99.90
9103;DHT22;4587;51.434;6.788;2022-09-09T15:17:06;17.90;99.90
9103;DHT22;4587;51.434;6.788;2022-09-09T15:19:32;17.80;99.90
9103;DHT22;4587;51.434;6.788;2022-09-09T15:21:57;17.80;99.90
9103;DHT22;4587;51.434;6.788;2022-09-09T15:24:25;17.80;99.90
9103;DHT22;4587;51.434;6.788;2022-09-09T15:26:52;17.80;99.90
9103;DHT22;4587;51.434;6.788;2022-09-09T15:29:19;17.70;99.90
9103;DHT22;4587;51.434;6.788;2022-09-09T15:31:44;17.70;99.90
9103;DHT22;4587;51.434;6.788;2022-09-09T15:34:11;17.70;99.90
9103;DHT22;4587;51.434;6.788;2022-09-09T15:36:40;17.80;99.90
9103;DHT22;4587;51.434;6.788;2022-09-09T15:39:08;18.00;99.90
9103;DHT22;4587;51.434;6.788;2022-09-09T15:41:37;18.00;99.90
9103;DHT22;4587;51.434;6.788;2022-09-09T15:44:03;18.10;99.90
9103;DHT22;4587;51.434;6.788;2022-09-09T15:49:11;18.20;99.90
9103;DHT22;4587;51.434;6.788;2022-09-09T15:51:43;18.30;99.90
9103;DHT22;4587;51.434;6.788;2022-09-09T15:54:13;18.30;99.90
9103;DHT22;4587;51.434;6.788;2022-09-09T15:56:40;18.30;99.90
9103;DHT22;4587;51.434;6.788;2022-09-09T15:59:06;18.40;99.90
9103;DHT22;4587;51.434;6.788;2022-09-09T16:01:32;18.50;99.90
9103;DHT22;4587;51.434;6.788;2022-09-09T16:03:59;18.50;99.90
9103;DHT22;4587;51.434;6.788;2022-09-09T16:06:25;18.40;99.90
9103;DHT22;4587;51.434;6.788;2022-09-09T16:08:54;18.40;99.90
9103;DHT22;4587;51.434;6.788;2022-09-09T16:11:23;18.40;99.90
9103;DHT22;4587;51.434;6.788;2022-09-09T16:13:49;18.40;99.90
9103;DHT22;4587;51.434;6.788;2022-09-09T16:16:17;18.50;99.90
9103;DHT22;4587;51.434;6.788;2022-09-09T16:18:48;18.40;99.90
9103;DHT22;4587;51.434;6.788;2022-09-09T16:21:20;18.40;99.90
9103;DHT22;4587;51.434;6.788;2022-09-09T16:23:46;18.50;99.90
9103;DHT22;4587;51.434;6.788;2022-09-09T16:26:13;18.50;99.90
9103;DHT22;4587;51.434;6.788;2022-09-09T16:28:39;18.40;99.90
9103;DHT22;4587;51.434;6.788;2022-09-09T16:31:10;18.40;99.90
9103;DHT22;4587;51.434;6.788;2022-09-09T16:33:36;18.30;99.90
9103;DHT22;4587;51.434;6.788;2022-09-09T16:36:09;18.30;99.90
9103;DHT22;4587;51.434;6.788;2022-09-09T16:38:36;18.30;99.90
9103;DHT22;4587;51.434;6.788;2022-09-09T16:41:03;18.30;99.90
9103;DHT22;4587;51.434;6.788;2022-09-09T16:43:31;18.30;99.90
9103;DHT22;4587;51.434;6.788;2022-09-09T16:45:57;18.30;99.90
9103;DHT22;4587;51.434;6.788;2022-09-09T16:48:31;18.30;99.90
9103;DHT22;4587;51.434;6.788;2022-09-09T16:51:07;18.40;99.90
9103;DHT22;4587;51.434;6.788;2022-09-09T16:53:33;18.30;99.90
9103;DHT22;4587;51.434;6.788;2022-09-09T16:56:07;18.30;99.90
9103;DHT22;4587;51.434;6.788;2022-09-09T16:58:34;18.30;99.90
9103;DHT22;4587;51.434;6.788;2022-09-09T17:01:00;18.30;99.90
9103;DHT22;4587;51.434;6.788;2022-09-09T17:03:27;18.30;99.90
9103;DHT22;4587;51.434;6.788;2022-09-09T17:05:53;18.20;99.90
9103;DHT22;4587;51.434;6.788;2022-09-09T17:08:19;18.20;99.90
9103;DHT22;4587;51.434;6.788;2022-09-09T17:10:44;18.30;99.90
9103;DHT22;4587;51.434;6.788;2022-09-09T17:13:11;18.30;99.90
9103;DHT22;4587;51.434;6.788;2022-09-09T17:15:41;18.30;99.90
9103;DHT22;4587;51.434;6.788;2022-09-09T17:18:11;18.30;99.90
9103;DHT22;4587;51.434;6.788;2022-09-09T17:20:38;18.20;99.90
9103;DHT22;4587;51.434;6.788;2022-09-09T17:23:13;18.20;99.90
9103;DHT22;4587;51.434;6.788;2022-09-09T17:25:41;18.20;99.90
9103;DHT22;4587;51.434;6.788;2022-09-09T17:28:06;18.10;99.90
9103;DHT22;4587;51.434;6.788;2022-09-09T17:30:35;18.10;99.90
9103;DHT22;4587;51.434;6.788;2022-09-09T17:33:02;18.00;99.90
9103;DHT22;4587;51.434;6.788;2022-09-09T17:35:29;18.00;99.90
9103;DHT22;4587;51.434;6.788;2022-09-09T17:37:55;17.90;99.90
9103;DHT22;4587;51.434;6.788;2022-09-09T17:40:22;17.90;99.90
9103;DHT22;4587;51.434;6.788;2022-09-09T17:42:48;17.90;99.90
9103;DHT22;4587;51.434;6.788;2022-09-09T17:45:14;17.90;99.90
9103;DHT22;4587;51.434;6.788;2022-09-09T17:47:40;17.80;99.90
9103;DHT22;4587;51.434;6.788;2022-09-09T17:50:08;17.70;99.90
9103;DHT22;4587;51.434;6.788;2022-09-09T17:52:34;17.70;99.90
9103;DHT22;4587;51.434;6.788;2022-09-09T17:55:00;17.70;99.90
9103;DHT22;4587;51.434;6.788;2022-09-09T17:57:29;17.70;99.90
9103;DHT22;4587;51.434;6.788;2022-09-09T17:59:57;17.70;99.90
9103;DHT22;4587;51.434;6.788;2022-09-09T18:02:23;17.70;99.90
9103;DHT22;4587;51.434;6.788;2022-09-09T18:04:48;17.70;99.90
9103;DHT22;4587;51.434;6.788;2022-09-09T18:07:14;17.60;99.90
9103;DHT22;4587;51.434;6.788;2022-09-09T18:09:39;17.70;99.90
9103;DHT22;4587;51.434;6.788;2022-09-09T18:12:05;17.70;99.90
9103;DHT22;4587;51.434;6.788;2022-09-09T18:14:32;17.60;99.90
9103;DHT22;4587;51.434;6.788;2022-09-09T18:16:59;17.70;99.90
9103;DHT22;4587;51.434;6.788;2022-09-09T18:19:27;17.60;99.90
9103;DHT22;4587;51.434;6.788;2022-09-09T18:21:55;17.60;99.90
9103;DHT22;4587;51.434;6.788;2022-09-09T18:24:21;17.60;99.90
9103;DHT22;4587;51.434;6.788;2022-09-09T18:26:48;17.50;99.90
9103;DHT22;4587;51.434;6.788;2022-09-09T18:29:17;17.50;99.90
9103;DHT22;4587;51.434;6.788;2022-09-09T18:31:45;17.50;99.90
9103;DHT22;4587;51.434;6.788;2022-09-09T18:34:13;17.60;99.90
9103;DHT22;4587;51.434;6.788;2022-09-09T18:36:47;17.70;99.90
9103;DHT22;4587;51.434;6.788;2022-09-09T18:39:16;17.60;99.90
9103;DHT22;4587;51.434;6.788;2022-09-09T18:41:44;17.60;99.90
9103;DHT22;4587;51.434;6.788;2022-09-09T18:44:14;17.60;99.90
9103;DHT22;4587;51.434;6.788;2022-09-09T18:46:41;17.60;99.90
9103;DHT22;4587;51.434;6.788;2022-09-09T18:49:08;17.60;99.90
9103;DHT22;4587;51.434;6.788;2022-09-09T18:51:36;17.50;99.90
9103;DHT22;4587;51.434;6.788;2022-09-09T18:54:05;17.60;99.90